sensor_id;sensor_type;location;lat;lon;timestamp;temperature;humidity
59881;DHT22;45751;51.380;10.326;2024-01-25T00:01:39;6.70;99.90
59881;DHT22;45751;51.380;10.326;2024-01-25T00:04:05;6.60;99.90
59881;DHT22;45751;51.380;10.326;2024-01-25T00:06:30;6.70;99.90
59881;DHT22;45751;51.380;10.326;2024-01-25T00:08:56;6.60;99.90
59881;DHT22;45751;51.380;10.326;2024-01-25T00:11:22;6.70;99.90
59881;DHT22;45751;51.380;10.326;2024-01-25T00:13:47;6.60;99.90
59881;DHT22;45751;51.380;10.326;2024-01-25T00:16:13;6.70;99.90
59881;DHT22;45751;51.380;10.326;2024-01-25T00:18:39;6.70;99.90
59881;DHT22;45751;51.380;10.326;2024-01-25T00:21:05;6.70;99.90
59881;DHT22;45751;51.380;10.326;2024-01-25T00:23:30;6.70;99.90
59881;DHT22;45751;51.380;10.326;2024-01-25T00:25:56;6.70;99.90
59881;DHT22;45751;51.380;10.326;2024-01-25T00:28:25;6.70;99.90
59881;DHT22;45751;51.380;10.326;2024-01-25T00:30:51;6.60;99.90
59881;DHT22;45751;51.380;10.326;2024-01-25T00:33:17;6.60;99.90
59881;DHT22;45751;51.380;10.326;2024-01-25T00:35:43;6.60;99.90
59881;DHT22;45751;51.380;10.326;2024-01-25T00:38:09;6.60;99.90
59881;DHT22;45751;51.380;10.326;2024-01-25T00:40:35;6.60;99.90
59881;DHT22;45751;51.380;10.326;2024-01-25T00:43:01;6.60;99.90
59881;DHT22;45751;51.380;10.326;2024-01-25T00:45:27;6.60;99.90
59881;DHT22;45751;51.380;10.326;2024-01-25T00:47:53;6.60;99.90
59881;DHT22;45751;51.380;10.326;2024-01-25T00:50:20;6.60;99.90
59881;DHT22;45751;51.380;10.326;2024-01-25T00:52:47;6.70;99.90
59881;DHT22;45751;51.380;10.326;2024-01-25T00:55:14;6.60;99.90
59881;DHT22;45751;51.380;10.326;2024-01-25T00:57:40;6.60;99.90
59881;DHT22;45751;51.380;10.326;2024-01-25T01:00:06;6.60;99.90
59881;DHT22;45751;51.380;10.326;2024-01-25T01:02:40;6.60;99.90
59881;DHT22;45751;51.380;10.326;2024-01-25T01:05:07;6.60;99.90
59881;DHT22;45751;51.380;10.326;2024-01-25T01:07:33;6.60;99.90
59881;DHT22;45751;51.380;10.326;2024-01-25T01:09:59;6.60;99.90
59881;DHT22;45751;51.380;10.326;2024-01-25T01:12:24;6.60;99.90
59881;DHT22;45751;51.380;10.326;2024-01-25T01:14:50;6.60;99.90
59881;DHT22;45751;51.380;10.326;2024-01-25T01:17:16;6.60;99.90
59881;DHT22;45751;51.380;10.326;2024-01-25T01:19:43;6.60;99.90
59881;DHT22;45751;51.380;10.326;2024-01-25T01:22:09;6.60;99.90
59881;DHT22;45751;51.380;10.326;2024-01-25T01:24:35;6.60;99.90
59881;DHT22;45751;51.380;10.326;2024-01-25T01:27:00;6.50;99.90
59881;DHT22;45751;51.380;10.326;2024-01-25T01:29:26;6.50;99.90
59881;DHT22;45751;51.380;10.326;2024-01-25T01:31:52;6.50;99.90
59881;DHT22;45751;51.380;10.326;2024-01-25T01:34:18;6.60;99.90
59881;DHT22;45751;51.380;10.326;2024-01-25T01:36:44;6.60;99.90
59881;DHT22;45751;51.380;10.326;2024-01-25T01:39:10;6.50;99.90
59881;DHT22;45751;51.380;10.326;2024-01-25T01:41:36;6.40;99.90
59881;DHT22;45751;51.380;10.326;2024-01-25T01:44:01;6.60;99.90
59881;DHT22;45751;51.380;10.326;2024-01-25T01:46:35;6.50;99.90
59881;DHT22;45751;51.380;10.326;2024-01-25T01:49:03;6.50;99.90
59881;DHT22;45751;51.380;10.326;2024-01-25T01:51:33;6.50;99.90
59881;DHT22;45751;51.380;10.326;2024-01-25T01:54:02;6.50;99.90
59881;DHT22;45751;51.380;10.326;2024-01-25T01:56:29;6.50;99.90
59881;DHT22;45751;51.380;10.326;2024-01-25T01:58:58;6.50;99.90
59881;DHT22;45751;51.380;10.326;2024-01-25T02:01:25;6.50;99.90
59881;DHT22;45751;51.380;10.326;2024-01-25T02:03:51;6.50;99.90
59881;DHT22;45751;51.380;10.326;2024-01-25T02:06:18;6.50;99.90
59881;DHT22;45751;51.380;10.326;2024-01-25T02:08:43;6.50;99.90
59881;DHT22;45751;51.380;10.326;2024-01-25T02:11:12;6.50;99.90
59881;DHT22;45751;51.380;10.326;2024-01-25T02:13:37;6.50;99.90
59881;DHT22;45751;51.380;10.326;2024-01-25T02:16:04;6.50;99.90
59881;DHT22;45751;51.380;10.326;2024-01-25T02:18:30;6.50;99.90
59881;DHT22;45751;51.380;10.326;2024-01-25T02:20:56;6.50;99.90
59881;DHT22;45751;51.380;10.326;2024-01-25T02:23:21;6.40;99.90
59881;DHT22;45751;51.380;10.326;2024-01-25T02:25:47;6.50;99.90
59881;DHT22;45751;51.380;10.326;2024-01-25T02:28:13;6.50;99.90
59881;DHT22;45751;51.380;10.326;2024-01-25T02:30:38;6.40;99.90
59881;DHT22;45751;51.380;10.326;2024-01-25T02:33:04;6.40;99.90
59881;DHT22;45751;51.380;10.326;2024-01-25T02:35:30;6.40;99.90
59881;DHT22;45751;51.380;10.326;2024-01-25T02:37:55;6.40;99.90
59881;DHT22;45751;51.380;10.326;2024-01-25T02:40:21;6.40;99.90
59881;DHT22;45751;51.380;10.326;2024-01-25T02:42:47;6.40;99.90
59881;DHT22;45751;51.380;10.326;2024-01-25T02:45:12;6.30;99.90
59881;DHT22;45751;51.380;10.326;2024-01-25T02:47:38;6.40;99.90
59881;DHT22;45751;51.380;10.326;2024-01-25T02:50:04;6.30;99.90
59881;DHT22;45751;51.380;10.326;2024-01-25T02:52:30;6.30;99.90
59881;DHT22;45751;51.380;10.326;2024-01-25T02:54:56;6.40;99.90
59881;DHT22;45751;51.380;10.326;2024-01-25T02:57:21;6.30;99.90
59881;DHT22;45751;51.380;10.326;2024-01-25T02:59:47;6.30;99.90
59881;DHT22;45751;51.380;10.326;2024-01-25T03:02:13;6.20;99.90
59881;DHT22;45751;51.380;10.326;2024-01-25T03:04:38;6.20;99.90
59881;DHT22;45751;51.380;10.326;2024-01-25T03:07:04;6.20;99.90
59881;DHT22;45751;51.380;10.326;2024-01-25T03:09:30;6.20;99.90
59881;DHT22;45751;51.380;10.326;2024-01-25T03:11:55;6.20;99.90
59881;DHT22;45751;51.380;10.326;2024-01-25T03:14:21;6.20;99.90
59881;DHT22;45751;51.380;10.326;2024-01-25T03:16:47;6.10;99.90
59881;DHT22;45751;51.380;10.326;2024-01-25T03:19:12;6.10;99.90
59881;DHT22;45751;51.380;10.326;2024-01-25T03:21:38;6.10;99.90
59881;DHT22;45751;51.380;10.326;2024-01-25T03:24:04;6.10;99.90
59881;DHT22;45751;51.380;10.326;2024-01-25T03:26:30;6.00;99.90
59881;DHT22;45751;51.380;10.326;2024-01-25T03:28:55;6.00;99.90
59881;DHT22;45751;51.380;10.326;2024-01-25T03:31:21;6.00;99.90
59881;DHT22;45751;51.380;10.326;2024-01-25T03:33:47;6.00;99.90
59881;DHT22;45751;51.380;10.326;2024-01-25T03:36:16;5.90;99.90
59881;DHT22;45751;51.380;10.326;2024-01-25T03:38:41;5.90;99.90
59881;DHT22;45751;51.380;10.326;2024-01-25T03:41:08;5.90;99.90
59881;DHT22;45751;51.380;10.326;2024-01-25T03:43:35;5.90;99.90
59881;DHT22;45751;51.380;10.326;2024-01-25T03:46:01;5.90;99.90
59881;DHT22;45751;51.380;10.326;2024-01-25T03:48:28;5.80;99.90
59881;DHT22;45751;51.380;10.326;2024-01-25T03:50:54;5.90;99.90
59881;DHT22;45751;51.380;10.326;2024-01-25T03:53:23;5.80;99.90
59881;DHT22;45751;51.380;10.326;2024-01-25T03:55:49;5.90;99.90
59881;DHT22;45751;51.380;10.326;2024-01-25T03:58:16;5.90;99.90
59881;DHT22;45751;51.380;10.326;2024-01-25T04:00:43;5.80;99.90
59881;DHT22;45751;51.380;10.326;2024-01-25T04:03:10;5.90;99.90
59881;DHT22;45751;51.380;10.326;2024-01-25T04:05:36;5.80;99.90
59881;DHT22;45751;51.380;10.326;2024-01-25T04:08:02;5.80;99.90
59881;DHT22;45751;51.380;10.326;2024-01-25T04:10:28;5.80;99.90
59881;DHT22;45751;51.380;10.326;2024-01-25T04:12:53;5.80;99.90
59881;DHT22;45751;51.380;10.326;2024-01-25T04:15:19;5.70;99.90
59881;DHT22;45751;51.380;10.326;2024-01-25T04:17:45;5.70;99.90
59881;DHT22;45751;51.380;10.326;2024-01-25T04:20:11;5.70;99.90
59881;DHT22;45751;51.380;10.326;2024-01-25T04:22:36;5.70;99.90
59881;DHT22;45751;51.380;10.326;2024-01-25T04:25:03;5.70;99.90
59881;DHT22;45751;51.380;10.326;2024-01-25T04:27:30;5.70;99.90
59881;DHT22;45751;51.380;10.326;2024-01-25T04:29:55;5.70;99.90
59881;DHT22;45751;51.380;10.326;2024-01-25T04:32:21;5.60;99.90
59881;DHT22;45751;51.380;10.326;2024-01-25T04:34:47;5.60;99.90
59881;DHT22;45751;51.380;10.326;2024-01-25T04:37:13;5.70;99.90
59881;DHT22;45751;51.380;10.326;2024-01-25T04:39:39;5.60;99.90
59881;DHT22;45751;51.380;10.326;2024-01-25T04:42:05;5.60;99.90
59881;DHT22;45751;51.380;10.326;2024-01-25T04:44:31;5.50;99.90
59881;DHT22;45751;51.380;10.326;2024-01-25T04:46:57;5.70;99.90
59881;DHT22;45751;51.380;10.326;2024-01-25T04:49:23;5.50;99.90
59881;DHT22;45751;51.380;10.326;2024-01-25T04:51:48;5.50;99.90
59881;DHT22;45751;51.380;10.326;2024-01-25T04:54:14;5.50;99.90
59881;DHT22;45751;51.380;10.326;2024-01-25T04:56:41;5.50;99.90
59881;DHT22;45751;51.380;10.326;2024-01-25T04:59:07;5.40;99.90
59881;DHT22;45751;51.380;10.326;2024-01-25T05:01:33;5.40;99.90
59881;DHT22;45751;51.380;10.326;2024-01-25T05:03:59;5.40;99.90
59881;DHT22;45751;51.380;10.326;2024-01-25T05:06:25;5.40;99.90
59881;DHT22;45751;51.380;10.326;2024-01-25T05:08:51;5.40;99.90
59881;DHT22;45751;51.380;10.326;2024-01-25T05:11:17;5.30;99.90
59881;DHT22;45751;51.380;10.326;2024-01-25T05:13:43;5.50;99.90
59881;DHT22;45751;51.380;10.326;2024-01-25T05:16:09;5.40;99.90
59881;DHT22;45751;51.380;10.326;2024-01-25T05:18:34;5.40;99.90
59881;DHT22;45751;51.380;10.326;2024-01-25T05:21:00;5.40;99.90
59881;DHT22;45751;51.380;10.326;2024-01-25T05:23:26;5.40;99.90
59881;DHT22;45751;51.380;10.326;2024-01-25T05:25:52;5.40;99.90
59881;DHT22;45751;51.380;10.326;2024-01-25T05:28:18;5.50;99.90
59881;DHT22;45751;51.380;10.326;2024-01-25T05:30:43;5.40;99.90
59881;DHT22;45751;51.380;10.326;2024-01-25T05:33:09;5.40;99.90
59881;DHT22;45751;51.380;10.326;2024-01-25T05:35:35;5.30;99.90
59881;DHT22;45751;51.380;10.326;2024-01-25T05:38:01;5.40;99.90
59881;DHT22;45751;51.380;10.326;2024-01-25T05:40:27;5.40;99.90
59881;DHT22;45751;51.380;10.326;2024-01-25T05:42:53;5.50;99.90
59881;DHT22;45751;51.380;10.326;2024-01-25T05:45:18;5.40;99.90
59881;DHT22;45751;51.380;10.326;2024-01-25T05:47:47;5.40;99.90
59881;DHT22;45751;51.380;10.326;2024-01-25T05:50:13;5.40;99.90
59881;DHT22;45751;51.380;10.326;2024-01-25T05:52:38;5.40;99.90
59881;DHT22;45751;51.380;10.326;2024-01-25T05:55:05;5.40;99.90
59881;DHT22;45751;51.380;10.326;2024-01-25T05:57:34;5.40;99.90
59881;DHT22;45751;51.380;10.326;2024-01-25T06:00:00;5.40;99.90
59881;DHT22;45751;51.380;10.326;2024-01-25T06:02:26;5.40;99.90
59881;DHT22;45751;51.380;10.326;2024-01-25T06:04:52;5.40;99.90
59881;DHT22;45751;51.380;10.326;2024-01-25T06:07:17;5.50;99.90
59881;DHT22;45751;51.380;10.326;2024-01-25T06:09:43;5.50;99.90
59881;DHT22;45751;51.380;10.326;2024-01-25T06:12:09;5.50;99.90
59881;DHT22;45751;51.380;10.326;2024-01-25T06:14:34;5.50;99.90
59881;DHT22;45751;51.380;10.326;2024-01-25T06:17:00;5.50;99.90
59881;DHT22;45751;51.380;10.326;2024-01-25T06:19:26;5.50;99.90
59881;DHT22;45751;51.380;10.326;2024-01-25T06:21:51;5.50;99.90
59881;DHT22;45751;51.380;10.326;2024-01-25T06:24:17;5.50;99.90
59881;DHT22;45751;51.380;10.326;2024-01-25T06:26:43;5.50;99.90
59881;DHT22;45751;51.380;10.326;2024-01-25T06:29:08;5.60;99.90
59881;DHT22;45751;51.380;10.326;2024-01-25T06:31:44;5.50;99.90
59881;DHT22;45751;51.380;10.326;2024-01-25T06:34:10;5.50;99.90
59881;DHT22;45751;51.380;10.326;2024-01-25T06:36:36;5.40;99.90
59881;DHT22;45751;51.380;10.326;2024-01-25T06:39:02;5.40;99.90
59881;DHT22;45751;51.380;10.326;2024-01-25T06:41:30;5.40;99.90
59881;DHT22;45751;51.380;10.326;2024-01-25T06:43:55;5.50;99.90
59881;DHT22;45751;51.380;10.326;2024-01-25T06:46:21;5.40;99.90
59881;DHT22;45751;51.380;10.326;2024-01-25T06:48:47;5.40;99.90
59881;DHT22;45751;51.380;10.326;2024-01-25T06:51:12;5.40;99.90
59881;DHT22;45751;51.380;10.326;2024-01-25T06:53:39;5.40;99.90
59881;DHT22;45751;51.380;10.326;2024-01-25T06:56:06;5.30;99.90
59881;DHT22;45751;51.380;10.326;2024-01-25T06:58:32;5.40;99.90
59881;DHT22;45751;51.380;10.326;2024-01-25T07:00:58;5.40;99.90
59881;DHT22;45751;51.380;10.326;2024-01-25T07:03:24;5.40;99.90
59881;DHT22;45751;51.380;10.326;2024-01-25T07:05:50;5.40;99.90
59881;DHT22;45751;51.380;10.326;2024-01-25T07:08:15;5.30;99.90
59881;DHT22;45751;51.380;10.326;2024-01-25T07:10:42;5.40;99.90
59881;DHT22;45751;51.380;10.326;2024-01-25T07:13:08;5.30;99.90
59881;DHT22;45751;51.380;10.326;2024-01-25T07:15:33;5.30;99.90
59881;DHT22;45751;51.380;10.326;2024-01-25T07:17:59;5.30;99.90
59881;DHT22;45751;51.380;10.326;2024-01-25T07:20:25;5.30;99.90
59881;DHT22;45751;51.380;10.326;2024-01-25T07:22:51;5.30;99.90
59881;DHT22;45751;51.380;10.326;2024-01-25T07:25:16;5.40;99.90
59881;DHT22;45751;51.380;10.326;2024-01-25T07:27:46;5.30;99.90
59881;DHT22;45751;51.380;10.326;2024-01-25T07:30:13;5.30;99.90
59881;DHT22;45751;51.380;10.326;2024-01-25T07:32:39;5.30;99.90
59881;DHT22;45751;51.380;10.326;2024-01-25T07:35:11;5.30;99.90
59881;DHT22;45751;51.380;10.326;2024-01-25T07:37:38;5.30;99.90
59881;DHT22;45751;51.380;10.326;2024-01-25T07:40:04;5.30;99.90
59881;DHT22;45751;51.380;10.326;2024-01-25T07:42:30;5.20;99.90
59881;DHT22;45751;51.380;10.326;2024-01-25T07:44:57;5.30;99.90
59881;DHT22;45751;51.380;10.326;2024-01-25T07:47:23;5.30;99.90
59881;DHT22;45751;51.380;10.326;2024-01-25T07:49:48;5.20;99.90
59881;DHT22;45751;51.380;10.326;2024-01-25T07:52:15;5.30;99.90
59881;DHT22;45751;51.380;10.326;2024-01-25T07:54:40;5.20;99.90
59881;DHT22;45751;51.380;10.326;2024-01-25T07:57:07;5.30;99.90
59881;DHT22;45751;51.380;10.326;2024-01-25T07:59:33;5.20;99.90
59881;DHT22;45751;51.380;10.326;2024-01-25T08:01:59;5.20;99.90
59881;DHT22;45751;51.380;10.326;2024-01-25T08:04:25;5.30;99.90
59881;DHT22;45751;51.380;10.326;2024-01-25T08:06:52;5.20;99.90
59881;DHT22;45751;51.380;10.326;2024-01-25T08:09:17;5.20;99.90
59881;DHT22;45751;51.380;10.326;2024-01-25T08:11:44;5.30;99.90
59881;DHT22;45751;51.380;10.326;2024-01-25T08:14:10;5.20;99.90
59881;DHT22;45751;51.380;10.326;2024-01-25T08:16:37;5.20;99.90
59881;DHT22;45751;51.380;10.326;2024-01-25T08:19:03;5.20;99.90
59881;DHT22;45751;51.380;10.326;2024-01-25T08:21:30;5.30;99.90
59881;DHT22;45751;51.380;10.326;2024-01-25T08:23:55;5.30;99.90
59881;DHT22;45751;51.380;10.326;2024-01-25T08:26:21;5.30;99.90
59881;DHT22;45751;51.380;10.326;2024-01-25T08:28:47;5.30;99.90
59881;DHT22;45751;51.380;10.326;2024-01-25T08:31:13;5.30;99.90
59881;DHT22;45751;51.380;10.326;2024-01-25T08:33:39;5.30;99.90
59881;DHT22;45751;51.380;10.326;2024-01-25T08:36:10;5.30;99.90
59881;DHT22;45751;51.380;10.326;2024-01-25T08:38:36;5.30;99.90
59881;DHT22;45751;51.380;10.326;2024-01-25T08:41:02;5.30;99.90
59881;DHT22;45751;51.380;10.326;2024-01-25T08:43:28;5.30;99.90
59881;DHT22;45751;51.380;10.326;2024-01-25T08:45:54;5.30;99.90
59881;DHT22;45751;51.380;10.326;2024-01-25T08:48:20;5.30;99.90
59881;DHT22;45751;51.380;10.326;2024-01-25T08:50:46;5.30;99.90
59881;DHT22;45751;51.380;10.326;2024-01-25T08:53:12;5.30;99.90
59881;DHT22;45751;51.380;10.326;2024-01-25T08:55:37;5.30;99.90
59881;DHT22;45751;51.380;10.326;2024-01-25T08:58:04;5.30;99.90
59881;DHT22;45751;51.380;10.326;2024-01-25T09:00:29;5.30;99.90
59881;DHT22;45751;51.380;10.326;2024-01-25T09:02:55;5.30;99.90
59881;DHT22;45751;51.380;10.326;2024-01-25T09:05:21;5.30;99.90
59881;DHT22;45751;51.380;10.326;2024-01-25T09:07:47;5.30;99.90
59881;DHT22;45751;51.380;10.326;2024-01-25T09:10:13;5.30;99.90
59881;DHT22;45751;51.380;10.326;2024-01-25T09:12:39;5.30;99.90
59881;DHT22;45751;51.380;10.326;2024-01-25T09:15:05;5.40;99.90
59881;DHT22;45751;51.380;10.326;2024-01-25T09:17:31;5.30;99.90
59881;DHT22;45751;51.380;10.326;2024-01-25T09:19:57;5.30;99.90
59881;DHT22;45751;51.380;10.326;2024-01-25T09:22:26;5.40;99.90
59881;DHT22;45751;51.380;10.326;2024-01-25T09:24:52;5.40;99.90
59881;DHT22;45751;51.380;10.326;2024-01-25T09:27:18;5.50;99.90
59881;DHT22;45751;51.380;10.326;2024-01-25T09:29:44;5.40;99.90
59881;DHT22;45751;51.380;10.326;2024-01-25T09:32:10;5.40;99.90
59881;DHT22;45751;51.380;10.326;2024-01-25T09:34:37;5.50;99.90
59881;DHT22;45751;51.380;10.326;2024-01-25T09:37:03;5.50;99.90
59881;DHT22;45751;51.380;10.326;2024-01-25T09:39:29;5.50;99.90
59881;DHT22;45751;51.380;10.326;2024-01-25T09:41:55;5.60;99.90
59881;DHT22;45751;51.380;10.326;2024-01-25T09:44:21;5.50;99.90
59881;DHT22;45751;51.380;10.326;2024-01-25T09:46:47;5.50;99.90
59881;DHT22;45751;51.380;10.326;2024-01-25T09:49:12;5.50;99.90
59881;DHT22;45751;51.380;10.326;2024-01-25T09:51:40;5.50;99.90
59881;DHT22;45751;51.380;10.326;2024-01-25T09:54:07;5.50;99.90
59881;DHT22;45751;51.380;10.326;2024-01-25T09:56:33;5.60;99.90
59881;DHT22;45751;51.380;10.326;2024-01-25T09:58:59;5.60;99.90
59881;DHT22;45751;51.380;10.326;2024-01-25T10:01:26;5.60;99.90
59881;DHT22;45751;51.380;10.326;2024-01-25T10:03:52;5.60;99.90
59881;DHT22;45751;51.380;10.326;2024-01-25T10:06:18;5.60;99.90
59881;DHT22;45751;51.380;10.326;2024-01-25T10:08:45;5.60;99.90
59881;DHT22;45751;51.380;10.326;2024-01-25T10:11:11;5.60;99.90
59881;DHT22;45751;51.380;10.326;2024-01-25T10:13:41;5.60;99.90
59881;DHT22;45751;51.380;10.326;2024-01-25T10:16:10;5.70;99.90
59881;DHT22;45751;51.380;10.326;2024-01-25T10:18:36;5.70;99.90
59881;DHT22;45751;51.380;10.326;2024-01-25T10:21:03;5.70;99.90
59881;DHT22;45751;51.380;10.326;2024-01-25T10:23:29;5.70;99.90
59881;DHT22;45751;51.380;10.326;2024-01-25T10:25:56;5.80;99.90
59881;DHT22;45751;51.380;10.326;2024-01-25T10:28:24;5.80;99.90
59881;DHT22;45751;51.380;10.326;2024-01-25T10:30:50;5.90;99.90
59881;DHT22;45751;51.380;10.326;2024-01-25T10:33:17;5.90;99.90
59881;DHT22;45751;51.380;10.326;2024-01-25T10:35:44;5.90;99.90
59881;DHT22;45751;51.380;10.326;2024-01-25T10:38:17;5.70;99.90
59881;DHT22;45751;51.380;10.326;2024-01-25T10:40:43;5.90;99.90
59881;DHT22;45751;51.380;10.326;2024-01-25T10:43:11;5.90;99.90
59881;DHT22;45751;51.380;10.326;2024-01-25T10:45:37;6.00;99.90
59881;DHT22;45751;51.380;10.326;2024-01-25T10:48:03;6.00;99.90
59881;DHT22;45751;51.380;10.326;2024-01-25T10:50:29;6.00;99.90
59881;DHT22;45751;51.380;10.326;2024-01-25T10:52:56;6.00;99.90
59881;DHT22;45751;51.380;10.326;2024-01-25T10:55:22;6.00;99.90
59881;DHT22;45751;51.380;10.326;2024-01-25T10:57:48;6.00;99.90
59881;DHT22;45751;51.380;10.326;2024-01-25T11:00:17;6.00;99.90
59881;DHT22;45751;51.380;10.326;2024-01-25T11:02:44;6.00;99.90
59881;DHT22;45751;51.380;10.326;2024-01-25T11:05:12;6.00;99.90
59881;DHT22;45751;51.380;10.326;2024-01-25T11:07:49;5.90;99.90
59881;DHT22;45751;51.380;10.326;2024-01-25T11:10:19;6.00;99.90
59881;DHT22;45751;51.380;10.326;2024-01-25T11:12:59;5.90;99.90
59881;DHT22;45751;51.380;10.326;2024-01-25T11:15:36;5.90;99.90
59881;DHT22;45751;51.380;10.326;2024-01-25T11:18:04;5.90;99.90
59881;DHT22;45751;51.380;10.326;2024-01-25T11:20:34;5.90;99.90
59881;DHT22;45751;51.380;10.326;2024-01-25T11:23:04;5.90;99.90
59881;DHT22;45751;51.380;10.326;2024-01-25T11:25:31;5.80;99.90
59881;DHT22;45751;51.380;10.326;2024-01-25T11:27:58;5.80;99.90
59881;DHT22;45751;51.380;10.326;2024-01-25T11:30:24;5.90;99.90
59881;DHT22;45751;51.380;10.326;2024-01-25T11:32:50;5.90;99.90
59881;DHT22;45751;51.380;10.326;2024-01-25T11:35:16;5.80;99.90
59881;DHT22;45751;51.380;10.326;2024-01-25T11:37:43;5.90;99.90
59881;DHT22;45751;51.380;10.326;2024-01-25T11:40:10;5.90;99.90
59881;DHT22;45751;51.380;10.326;2024-01-25T11:42:37;6.00;99.90
59881;DHT22;45751;51.380;10.326;2024-01-25T11:45:04;5.90;99.90
59881;DHT22;45751;51.380;10.326;2024-01-25T11:47:30;6.00;99.90
59881;DHT22;45751;51.380;10.326;2024-01-25T11:49:56;6.00;99.90
59881;DHT22;45751;51.380;10.326;2024-01-25T11:52:22;6.00;99.90
59881;DHT22;45751;51.380;10.326;2024-01-25T11:54:47;6.10;99.90
59881;DHT22;45751;51.380;10.326;2024-01-25T11:57:13;6.10;99.90
59881;DHT22;45751;51.380;10.326;2024-01-25T11:59:39;6.10;99.90
59881;DHT22;45751;51.380;10.326;2024-01-25T12:02:05;6.20;99.90
59881;DHT22;45751;51.380;10.326;2024-01-25T12:04:31;6.10;99.90
59881;DHT22;45751;51.380;10.326;2024-01-25T12:06:57;6.20;99.90
59881;DHT22;45751;51.380;10.326;2024-01-25T12:09:22;6.00;99.90
59881;DHT22;45751;51.380;10.326;2024-01-25T12:11:51;6.20;99.90
59881;DHT22;45751;51.380;10.326;2024-01-25T12:14:17;6.20;99.90
59881;DHT22;45751;51.380;10.326;2024-01-25T12:16:43;6.30;99.90
59881;DHT22;45751;51.380;10.326;2024-01-25T12:19:08;6.40;99.90
59881;DHT22;45751;51.380;10.326;2024-01-25T12:21:34;6.40;99.90
59881;DHT22;45751;51.380;10.326;2024-01-25T12:24:00;6.50;99.90
59881;DHT22;45751;51.380;10.326;2024-01-25T12:26:27;6.50;99.90
59881;DHT22;45751;51.380;10.326;2024-01-25T12:28:52;6.50;99.90
59881;DHT22;45751;51.380;10.326;2024-01-25T12:31:18;6.50;99.90
59881;DHT22;45751;51.380;10.326;2024-01-25T12:33:44;6.40;99.90
59881;DHT22;45751;51.380;10.326;2024-01-25T12:36:10;6.40;99.90
59881;DHT22;45751;51.380;10.326;2024-01-25T12:38:35;6.50;99.90
59881;DHT22;45751;51.380;10.326;2024-01-25T12:41:01;6.40;99.90
59881;DHT22;45751;51.380;10.326;2024-01-25T12:43:28;6.40;99.90
59881;DHT22;45751;51.380;10.326;2024-01-25T12:45:54;6.40;99.90
59881;DHT22;45751;51.380;10.326;2024-01-25T12:48:20;6.40;99.90
59881;DHT22;45751;51.380;10.326;2024-01-25T12:50:46;6.40;99.90
59881;DHT22;45751;51.380;10.326;2024-01-25T12:53:12;6.40;99.90
59881;DHT22;45751;51.380;10.326;2024-01-25T12:55:38;6.40;99.90
59881;DHT22;45751;51.380;10.326;2024-01-25T12:58:04;6.40;99.90
59881;DHT22;45751;51.380;10.326;2024-01-25T13:00:30;6.40;99.90
59881;DHT22;45751;51.380;10.326;2024-01-25T13:02:55;6.40;99.90
59881;DHT22;45751;51.380;10.326;2024-01-25T13:05:22;6.50;99.90
59881;DHT22;45751;51.380;10.326;2024-01-25T13:07:48;6.50;99.90
59881;DHT22;45751;51.380;10.326;2024-01-25T13:10:14;6.60;99.90
59881;DHT22;45751;51.380;10.326;2024-01-25T13:12:40;6.70;99.90
59881;DHT22;45751;51.380;10.326;2024-01-25T13:15:07;6.80;99.90
59881;DHT22;45751;51.380;10.326;2024-01-25T13:17:36;6.80;99.90
59881;DHT22;45751;51.380;10.326;2024-01-25T13:20:03;6.80;99.90
59881;DHT22;45751;51.380;10.326;2024-01-25T13:22:31;6.80;99.90
59881;DHT22;45751;51.380;10.326;2024-01-25T13:24:59;6.80;99.90
59881;DHT22;45751;51.380;10.326;2024-01-25T13:27:25;7.00;99.90
59881;DHT22;45751;51.380;10.326;2024-01-25T13:29:51;7.00;99.90
59881;DHT22;45751;51.380;10.326;2024-01-25T13:32:17;7.00;99.90
59881;DHT22;45751;51.380;10.326;2024-01-25T13:34:43;6.90;99.90
59881;DHT22;45751;51.380;10.326;2024-01-25T13:37:08;6.90;99.90
59881;DHT22;45751;51.380;10.326;2024-01-25T13:39:34;6.90;99.90
59881;DHT22;45751;51.380;10.326;2024-01-25T13:42:00;7.00;99.90
59881;DHT22;45751;51.380;10.326;2024-01-25T13:44:25;7.00;99.90
59881;DHT22;45751;51.380;10.326;2024-01-25T13:46:51;7.10;99.90
59881;DHT22;45751;51.380;10.326;2024-01-25T13:49:17;7.30;99.90
59881;DHT22;45751;51.380;10.326;2024-01-25T13:51:44;7.10;99.90
59881;DHT22;45751;51.380;10.326;2024-01-25T13:54:10;7.20;99.90
59881;DHT22;45751;51.380;10.326;2024-01-25T13:56:35;7.20;99.90
59881;DHT22;45751;51.380;10.326;2024-01-25T13:59:01;7.20;99.90
59881;DHT22;45751;51.380;10.326;2024-01-25T14:01:27;7.30;99.90
59881;DHT22;45751;51.380;10.326;2024-01-25T14:03:52;7.30;99.90
59881;DHT22;45751;51.380;10.326;2024-01-25T14:06:18;7.30;99.90
59881;DHT22;45751;51.380;10.326;2024-01-25T14:08:44;7.40;99.90
59881;DHT22;45751;51.380;10.326;2024-01-25T14:11:10;7.30;99.90
59881;DHT22;45751;51.380;10.326;2024-01-25T14:13:36;7.30;99.90
59881;DHT22;45751;51.380;10.326;2024-01-25T14:16:01;7.30;99.90
59881;DHT22;45751;51.380;10.326;2024-01-25T14:18:28;7.30;99.90
59881;DHT22;45751;51.380;10.326;2024-01-25T14:20:55;7.30;99.90
59881;DHT22;45751;51.380;10.326;2024-01-25T14:23:20;7.30;99.90
59881;DHT22;45751;51.380;10.326;2024-01-25T14:25:46;7.20;99.90
59881;DHT22;45751;51.380;10.326;2024-01-25T14:28:12;7.20;99.90
59881;DHT22;45751;51.380;10.326;2024-01-25T14:30:37;7.20;99.80
59881;DHT22;45751;51.380;10.326;2024-01-25T14:33:03;7.20;99.90
59881;DHT22;45751;51.380;10.326;2024-01-25T14:35:29;7.10;99.60
59881;DHT22;45751;51.380;10.326;2024-01-25T14:37:56;7.10;99.40
59881;DHT22;45751;51.380;10.326;2024-01-25T14:40:22;7.10;99.50
59881;DHT22;45751;51.380;10.326;2024-01-25T14:42:48;7.00;99.50
59881;DHT22;45751;51.380;10.326;2024-01-25T14:45:15;7.00;99.90
59881;DHT22;45751;51.380;10.326;2024-01-25T14:47:40;7.00;99.90
59881;DHT22;45751;51.380;10.326;2024-01-25T14:50:06;6.90;99.90
59881;DHT22;45751;51.380;10.326;2024-01-25T14:52:32;6.90;99.90
59881;DHT22;45751;51.380;10.326;2024-01-25T14:55:03;6.90;99.90
59881;DHT22;45751;51.380;10.326;2024-01-25T14:57:30;6.90;99.90
59881;DHT22;45751;51.380;10.326;2024-01-25T14:59:55;6.90;99.90
59881;DHT22;45751;51.380;10.326;2024-01-25T15:02:21;6.90;99.90
59881;DHT22;45751;51.380;10.326;2024-01-25T15:04:47;6.80;99.90
59881;DHT22;45751;51.380;10.326;2024-01-25T15:07:13;6.80;99.90
59881;DHT22;45751;51.380;10.326;2024-01-25T15:09:39;6.80;99.40
59881;DHT22;45751;51.380;10.326;2024-01-25T15:12:06;6.80;99.70
59881;DHT22;45751;51.380;10.326;2024-01-25T15:14:31;6.70;99.90
59881;DHT22;45751;51.380;10.326;2024-01-25T15:16:57;6.70;99.90
59881;DHT22;45751;51.380;10.326;2024-01-25T15:19:23;6.60;99.90
59881;DHT22;45751;51.380;10.326;2024-01-25T15:21:48;6.70;99.90
59881;DHT22;45751;51.380;10.326;2024-01-25T15:24:14;6.60;99.40